sensor_id;sensor_type;location;lat;lon;timestamp;P1;durP1;ratioP1;P2;durP2;ratioP2
49610;SDS011;35515;48.766;9.176;2023-01-19T00:01:40;13.85;;;10.30;;
49610;SDS011;35515;48.766;9.176;2023-01-19T00:04:06;13.98;;;9.52;;
49610;SDS011;35515;48.766;9.176;2023-01-19T00:06:33;15.80;;;10.68;;
49610;SDS011;35515;48.766;9.176;2023-01-19T00:09:00;16.58;;;9.88;;
49610;SDS011;35515;48.766;9.176;2023-01-19T00:11:27;13.80;;;9.88;;
49610;SDS011;35515;48.766;9.176;2023-01-19T00:13:54;15.18;;;9.93;;
49610;SDS011;35515;48.766;9.176;2023-01-19T00:16:21;15.73;;;10.80;;
49610;SDS011;35515;48.766;9.176;2023-01-19T00:18:48;13.38;;;10.32;;
49610;SDS011;35515;48.766;9.176;2023-01-19T00:21:16;18.02;;;10.50;;
49610;SDS011;35515;48.766;9.176;2023-01-19T00:23:43;14.48;;;10.43;;
49610;SDS011;35515;48.766;9.176;2023-01-19T00:26:12;16.75;;;11.02;;
49610;SDS011;35515;48.766;9.176;2023-01-19T00:28:41;17.40;;;11.38;;
49610;SDS011;35515;48.766;9.176;2023-01-19T00:31:08;15.85;;;10.38;;
49610;SDS011;35515;48.766;9.176;2023-01-19T00:33:34;15.32;;;10.88;;
49610;SDS011;35515;48.766;9.176;2023-01-19T00:36:01;15.63;;;10.95;;
49610;SDS011;35515;48.766;9.176;2023-01-19T00:38:27;17.95;;;11.50;;
49610;SDS011;35515;48.766;9.176;2023-01-19T00:40:54;15.52;;;9.80;;
49610;SDS011;35515;48.766;9.176;2023-01-19T00:43:21;17.35;;;10.68;;
49610;SDS011;35515;48.766;9.176;2023-01-19T00:45:47;16.65;;;10.77;;
49610;SDS011;35515;48.766;9.176;2023-01-19T00:48:14;17.25;;;10.88;;
49610;SDS011;35515;48.766;9.176;2023-01-19T00:50:40;14.07;;;9.73;;
49610;SDS011;35515;48.766;9.176;2023-01-19T00:53:07;14.18;;;10.52;;
49610;SDS011;35515;48.766;9.176;2023-01-19T00:55:33;14.98;;;9.50;;
49610;SDS011;35515;48.766;9.176;2023-01-19T00:58:00;13.10;;;9.98;;
49610;SDS011;35515;48.766;9.176;2023-01-19T01:00:27;14.05;;;9.27;;
49610;SDS011;35515;48.766;9.176;2023-01-19T01:02:55;17.30;;;10.75;;
49610;SDS011;35515;48.766;9.176;2023-01-19T01:05:21;17.27;;;10.60;;
49610;SDS011;35515;48.766;9.176;2023-01-19T01:07:48;16.15;;;10.05;;
49610;SDS011;35515;48.766;9.176;2023-01-19T01:10:15;16.30;;;10.38;;
49610;SDS011;35515;48.766;9.176;2023-01-19T01:12:44;19.45;;;10.20;;
49610;SDS011;35515;48.766;9.176;2023-01-19T01:15:11;14.80;;;10.00;;
49610;SDS011;35515;48.766;9.176;2023-01-19T01:17:39;13.57;;;10.10;;
49610;SDS011;35515;48.766;9.176;2023-01-19T01:20:13;13.52;;;9.95;;
49610;SDS011;35515;48.766;9.176;2023-01-19T01:22:42;17.90;;;11.40;;
49610;SDS011;35515;48.766;9.176;2023-01-19T01:25:10;18.20;;;10.20;;
49610;SDS011;35515;48.766;9.176;2023-01-19T01:27:37;16.33;;;9.43;;
49610;SDS011;35515;48.766;9.176;2023-01-19T01:30:04;17.63;;;11.13;;
49610;SDS011;35515;48.766;9.176;2023-01-19T01:32:31;13.25;;;9.80;;
49610;SDS011;35515;48.766;9.176;2023-01-19T01:34:58;13.40;;;9.98;;
49610;SDS011;35515;48.766;9.176;2023-01-19T01:37:26;14.57;;;10.05;;
49610;SDS011;35515;48.766;9.176;2023-01-19T01:39:52;14.32;;;9.82;;
49610;SDS011;35515;48.766;9.176;2023-01-19T01:42:19;14.18;;;9.75;;
49610;SDS011;35515;48.766;9.176;2023-01-19T01:44:53;12.93;;;9.95;;
49610;SDS011;35515;48.766;9.176;2023-01-19T01:47:25;13.05;;;9.98;;
49610;SDS011;35515;48.766;9.176;2023-01-19T01:49:57;14.73;;;8.95;;
49610;SDS011;35515;48.766;9.176;2023-01-19T01:52:30;14.55;;;9.30;;
49610;SDS011;35515;48.766;9.176;2023-01-19T01:54:58;14.48;;;9.25;;
49610;SDS011;35515;48.766;9.176;2023-01-19T01:57:30;12.15;;;9.85;;
49610;SDS011;35515;48.766;9.176;2023-01-19T01:59:58;13.93;;;9.48;;
49610;SDS011;35515;48.766;9.176;2023-01-19T02:02:25;16.20;;;9.75;;
49610;SDS011;35515;48.766;9.176;2023-01-19T02:05:14;18.95;;;9.52;;
49610;SDS011;35515;48.766;9.176;2023-01-19T02:07:46;12.88;;;8.65;;
49610;SDS011;35515;48.766;9.176;2023-01-19T02:10:35;13.52;;;8.77;;
49610;SDS011;35515;48.766;9.176;2023-01-19T02:13:20;14.85;;;9.20;;
49610;SDS011;35515;48.766;9.176;2023-01-19T02:15:48;12.23;;;9.13;;
49610;SDS011;35515;48.766;9.176;2023-01-19T02:18:16;15.00;;;9.02;;
49610;SDS011;35515;48.766;9.176;2023-01-19T02:20:46;16.60;;;10.20;;
49610;SDS011;35515;48.766;9.176;2023-01-19T02:25:55;14.38;;;9.27;;
49610;SDS011;35515;48.766;9.176;2023-01-19T02:28:23;11.48;;;8.57;;
49610;SDS011;35515;48.766;9.176;2023-01-19T02:30:50;15.50;;;9.27;;
49610;SDS011;35515;48.766;9.176;2023-01-19T02:33:17;15.90;;;9.73;;
49610;SDS011;35515;48.766;9.176;2023-01-19T02:35:43;13.38;;;8.43;;
49610;SDS011;35515;48.766;9.176;2023-01-19T02:38:11;15.73;;;9.73;;
49610;SDS011;35515;48.766;9.176;2023-01-19T02:40:41;11.50;;;8.50;;
49610;SDS011;35515;48.766;9.176;2023-01-19T02:43:10;14.73;;;8.88;;
49610;SDS011;35515;48.766;9.176;2023-01-19T02:45:37;14.98;;;9.90;;
49610;SDS011;35515;48.766;9.176;2023-01-19T02:48:04;13.88;;;8.82;;
49610;SDS011;35515;48.766;9.176;2023-01-19T02:50:39;15.05;;;9.32;;
49610;SDS011;35515;48.766;9.176;2023-01-19T02:59:32;12.45;;;8.40;;
49610;SDS011;35515;48.766;9.176;2023-01-19T03:02:13;11.63;;;8.18;;
49610;SDS011;35515;48.766;9.176;2023-01-19T03:04:57;12.98;;;9.07;;
49610;SDS011;35515;48.766;9.176;2023-01-19T03:07:36;13.50;;;9.13;;
49610;SDS011;35515;48.766;9.176;2023-01-19T03:10:11;11.52;;;8.38;;
49610;SDS011;35515;48.766;9.176;2023-01-19T03:12:47;12.40;;;8.15;;
49610;SDS011;35515;48.766;9.176;2023-01-19T03:15:18;13.00;;;8.35;;
49610;SDS011;35515;48.766;9.176;2023-01-19T03:17:47;11.98;;;8.50;;
49610;SDS011;35515;48.766;9.176;2023-01-19T03:20:17;12.75;;;8.27;;
49610;SDS011;35515;48.766;9.176;2023-01-19T03:22:49;15.05;;;9.05;;
49610;SDS011;35515;48.766;9.176;2023-01-19T03:25:19;13.15;;;9.00;;
49610;SDS011;35515;48.766;9.176;2023-01-19T03:27:49;13.63;;;8.65;;
49610;SDS011;35515;48.766;9.176;2023-01-19T03:30:21;10.48;;;7.95;;
49610;SDS011;35515;48.766;9.176;2023-01-19T03:32:52;14.18;;;8.10;;
49610;SDS011;35515;48.766;9.176;2023-01-19T03:35:22;12.38;;;8.13;;
49610;SDS011;35515;48.766;9.176;2023-01-19T03:37:53;11.13;;;8.70;;
49610;SDS011;35515;48.766;9.176;2023-01-19T03:40:22;11.50;;;8.25;;
49610;SDS011;35515;48.766;9.176;2023-01-19T03:42:52;13.27;;;7.57;;
49610;SDS011;35515;48.766;9.176;2023-01-19T03:45:20;11.70;;;7.45;;
49610;SDS011;35515;48.766;9.176;2023-01-19T03:47:47;10.75;;;7.32;;
49610;SDS011;35515;48.766;9.176;2023-01-19T03:50:17;12.45;;;8.35;;
49610;SDS011;35515;48.766;9.176;2023-01-19T03:52:58;11.93;;;7.78;;
49610;SDS011;35515;48.766;9.176;2023-01-19T03:55:26;10.18;;;7.60;;
49610;SDS011;35515;48.766;9.176;2023-01-19T03:57:54;12.93;;;8.20;;
49610;SDS011;35515;48.766;9.176;2023-01-19T04:00:21;14.75;;;8.77;;
49610;SDS011;35515;48.766;9.176;2023-01-19T04:02:48;10.65;;;8.30;;
49610;SDS011;35515;48.766;9.176;2023-01-19T04:05:14;11.38;;;7.78;;
49610;SDS011;35515;48.766;9.176;2023-01-19T04:07:41;13.15;;;8.45;;
49610;SDS011;35515;48.766;9.176;2023-01-19T04:10:08;13.30;;;8.85;;
49610;SDS011;35515;48.766;9.176;2023-01-19T04:12:36;12.23;;;8.80;;
49610;SDS011;35515;48.766;9.176;2023-01-19T04:15:05;12.45;;;8.18;;
49610;SDS011;35515;48.766;9.176;2023-01-19T04:17:32;13.90;;;10.13;;
49610;SDS011;35515;48.766;9.176;2023-01-19T04:19:59;15.10;;;9.68;;
49610;SDS011;35515;48.766;9.176;2023-01-19T04:22:25;13.00;;;9.10;;
49610;SDS011;35515;48.766;9.176;2023-01-19T04:24:52;14.07;;;9.68;;
49610;SDS011;35515;48.766;9.176;2023-01-19T04:27:19;13.07;;;8.95;;
49610;SDS011;35515;48.766;9.176;2023-01-19T04:29:46;13.43;;;9.07;;
49610;SDS011;35515;48.766;9.176;2023-01-19T04:32:14;13.00;;;8.70;;
49610;SDS011;35515;48.766;9.176;2023-01-19T04:34:40;12.70;;;8.93;;
49610;SDS011;35515;48.766;9.176;2023-01-19T04:37:07;13.88;;;9.50;;
49610;SDS011;35515;48.766;9.176;2023-01-19T04:39:34;14.30;;;9.30;;
49610;SDS011;35515;48.766;9.176;2023-01-19T04:42:00;15.20;;;10.00;;
49610;SDS011;35515;48.766;9.176;2023-01-19T04:44:27;12.00;;;9.23;;
49610;SDS011;35515;48.766;9.176;2023-01-19T04:46:54;13.75;;;10.05;;
49610;SDS011;35515;48.766;9.176;2023-01-19T04:49:21;15.82;;;10.93;;
49610;SDS011;35515;48.766;9.176;2023-01-19T04:51:48;14.05;;;10.15;;
49610;SDS011;35515;48.766;9.176;2023-01-19T04:54:17;14.68;;;9.90;;
49610;SDS011;35515;48.766;9.176;2023-01-19T04:56:44;15.65;;;9.52;;
49610;SDS011;35515;48.766;9.176;2023-01-19T04:59:11;15.38;;;9.40;;
49610;SDS011;35515;48.766;9.176;2023-01-19T05:01:37;18.83;;;10.77;;
49610;SDS011;35515;48.766;9.176;2023-01-19T05:04:04;15.02;;;9.65;;
49610;SDS011;35515;48.766;9.176;2023-01-19T05:06:33;15.63;;;9.95;;
49610;SDS011;35515;48.766;9.176;2023-01-19T05:08:59;15.68;;;10.30;;
49610;SDS011;35515;48.766;9.176;2023-01-19T05:11:26;15.07;;;10.45;;
49610;SDS011;35515;48.766;9.176;2023-01-19T05:13:52;13.05;;;10.07;;
49610;SDS011;35515;48.766;9.176;2023-01-19T05:16:19;16.77;;;10.30;;
49610;SDS011;35515;48.766;9.176;2023-01-19T05:18:45;14.90;;;9.95;;
49610;SDS011;35515;48.766;9.176;2023-01-19T05:21:12;17.50;;;10.73;;
49610;SDS011;35515;48.766;9.176;2023-01-19T05:23:40;15.10;;;10.23;;
49610;SDS011;35515;48.766;9.176;2023-01-19T05:26:06;14.10;;;9.88;;
49610;SDS011;35515;48.766;9.176;2023-01-19T05:28:33;15.02;;;10.57;;
49610;SDS011;35515;48.766;9.176;2023-01-19T05:30:59;14.25;;;9.80;;
49610;SDS011;35515;48.766;9.176;2023-01-19T05:33:26;15.43;;;10.13;;
49610;SDS011;35515;48.766;9.176;2023-01-19T05:35:52;17.80;;;10.77;;
49610;SDS011;35515;48.766;9.176;2023-01-19T05:38:19;15.15;;;9.98;;
49610;SDS011;35515;48.766;9.176;2023-01-19T05:40:48;14.52;;;10.35;;
49610;SDS011;35515;48.766;9.176;2023-01-19T05:43:14;13.60;;;9.80;;
49610;SDS011;35515;48.766;9.176;2023-01-19T05:45:41;14.18;;;9.93;;
49610;SDS011;35515;48.766;9.176;2023-01-19T05:48:07;16.00;;;10.45;;
49610;SDS011;35515;48.766;9.176;2023-01-19T05:50:34;13.77;;;9.43;;
49610;SDS011;35515;48.766;9.176;2023-01-19T05:53:00;15.85;;;10.00;;
49610;SDS011;35515;48.766;9.176;2023-01-19T05:55:27;14.80;;;9.45;;
49610;SDS011;35515;48.766;9.176;2023-01-19T05:57:55;17.80;;;10.02;;
49610;SDS011;35515;48.766;9.176;2023-01-19T06:00:22;12.60;;;8.50;;
49610;SDS011;35515;48.766;9.176;2023-01-19T06:02:49;16.58;;;10.43;;
49610;SDS011;35515;48.766;9.176;2023-01-19T06:05:16;15.70;;;11.20;;
49610;SDS011;35515;48.766;9.176;2023-01-19T06:07:42;17.48;;;10.07;;
49610;SDS011;35515;48.766;9.176;2023-01-19T06:10:09;14.65;;;10.48;;
49610;SDS011;35515;48.766;9.176;2023-01-19T06:12:37;15.45;;;10.32;;
49610;SDS011;35515;48.766;9.176;2023-01-19T06:15:06;14.23;;;9.90;;
49610;SDS011;35515;48.766;9.176;2023-01-19T06:17:33;14.10;;;9.68;;
49610;SDS011;35515;48.766;9.176;2023-01-19T06:20:00;16.30;;;9.68;;
49610;SDS011;35515;48.766;9.176;2023-01-19T06:22:27;15.13;;;8.88;;
49610;SDS011;35515;48.766;9.176;2023-01-19T06:24:54;11.75;;;9.27;;
49610;SDS011;35515;48.766;9.176;2023-01-19T06:27:20;15.95;;;9.20;;
49610;SDS011;35515;48.766;9.176;2023-01-19T06:29:47;15.00;;;9.60;;
49610;SDS011;35515;48.766;9.176;2023-01-19T06:32:14;13.48;;;9.65;;
49610;SDS011;35515;48.766;9.176;2023-01-19T06:34:41;12.23;;;8.68;;
49610;SDS011;35515;48.766;9.176;2023-01-19T06:37:08;14.20;;;8.98;;
49610;SDS011;35515;48.766;9.176;2023-01-19T06:39:35;13.15;;;8.65;;
49610;SDS011;35515;48.766;9.176;2023-01-19T06:42:04;14.27;;;9.50;;
49610;SDS011;35515;48.766;9.176;2023-01-19T06:44:31;14.77;;;9.05;;
49610;SDS011;35515;48.766;9.176;2023-01-19T06:46:58;15.15;;;9.93;;
49610;SDS011;35515;48.766;9.176;2023-01-19T06:49:25;13.77;;;8.23;;
49610;SDS011;35515;48.766;9.176;2023-01-19T06:51:52;15.13;;;9.48;;
49610;SDS011;35515;48.766;9.176;2023-01-19T06:54:18;13.20;;;8.50;;
49610;SDS011;35515;48.766;9.176;2023-01-19T06:56:45;13.32;;;8.93;;
49610;SDS011;35515;48.766;9.176;2023-01-19T06:59:12;15.20;;;9.68;;
49610;SDS011;35515;48.766;9.176;2023-01-19T07:01:38;12.75;;;8.43;;
49610;SDS011;35515;48.766;9.176;2023-01-19T07:04:05;13.25;;;8.45;;
49610;SDS011;35515;48.766;9.176;2023-01-19T07:06:33;15.48;;;8.65;;
49610;SDS011;35515;48.766;9.176;2023-01-19T07:08:59;14.25;;;8.35;;
49610;SDS011;35515;48.766;9.176;2023-01-19T07:11:31;11.40;;;7.85;;
49610;SDS011;35515;48.766;9.176;2023-01-19T07:13:57;11.02;;;7.43;;
49610;SDS011;35515;48.766;9.176;2023-01-19T07:16:24;13.43;;;7.68;;
49610;SDS011;35515;48.766;9.176;2023-01-19T07:18:50;13.75;;;8.52;;
49610;SDS011;35515;48.766;9.176;2023-01-19T07:21:17;9.85;;;7.18;;
49610;SDS011;35515;48.766;9.176;2023-01-19T07:23:48;15.75;;;8.05;;
49610;SDS011;35515;48.766;9.176;2023-01-19T07:26:15;14.35;;;7.43;;
49610;SDS011;35515;48.766;9.176;2023-01-19T07:28:43;12.80;;;7.93;;
49610;SDS011;35515;48.766;9.176;2023-01-19T07:31:10;12.45;;;7.10;;
49610;SDS011;35515;48.766;9.176;2023-01-19T07:33:36;12.00;;;7.90;;
49610;SDS011;35515;48.766;9.176;2023-01-19T07:36:03;13.45;;;8.15;;
49610;SDS011;35515;48.766;9.176;2023-01-19T07:38:30;13.38;;;7.28;;
49610;SDS011;35515;48.766;9.176;2023-01-19T07:41:01;13.05;;;8.30;;
49610;SDS011;35515;48.766;9.176;2023-01-19T07:43:29;12.63;;;7.32;;
49610;SDS011;35515;48.766;9.176;2023-01-19T07:45:56;11.57;;;7.78;;
49610;SDS011;35515;48.766;9.176;2023-01-19T07:48:23;10.15;;;7.50;;
49610;SDS011;35515;48.766;9.176;2023-01-19T07:50:50;10.27;;;7.20;;
49610;SDS011;35515;48.766;9.176;2023-01-19T07:53:16;11.13;;;6.70;;
49610;SDS011;35515;48.766;9.176;2023-01-19T07:55:43;11.52;;;7.18;;
49610;SDS011;35515;48.766;9.176;2023-01-19T07:58:11;10.52;;;7.38;;
49610;SDS011;35515;48.766;9.176;2023-01-19T08:00:37;12.80;;;6.63;;
49610;SDS011;35515;48.766;9.176;2023-01-19T08:03:04;9.75;;;6.40;;
49610;SDS011;35515;48.766;9.176;2023-01-19T08:05:30;9.43;;;6.15;;
49610;SDS011;35515;48.766;9.176;2023-01-19T08:07:58;9.82;;;6.85;;
49610;SDS011;35515;48.766;9.176;2023-01-19T08:10:25;8.90;;;6.60;;
49610;SDS011;35515;48.766;9.176;2023-01-19T08:12:53;10.95;;;7.05;;
49610;SDS011;35515;48.766;9.176;2023-01-19T08:15:21;12.52;;;7.28;;
49610;SDS011;35515;48.766;9.176;2023-01-19T08:17:58;10.95;;;7.88;;
49610;SDS011;35515;48.766;9.176;2023-01-19T08:20:26;9.80;;;7.07;;
49610;SDS011;35515;48.766;9.176;2023-01-19T08:22:53;10.80;;;6.60;;
49610;SDS011;35515;48.766;9.176;2023-01-19T08:25:24;9.40;;;7.00;;
49610;SDS011;35515;48.766;9.176;2023-01-19T08:27:52;8.35;;;5.75;;
49610;SDS011;35515;48.766;9.176;2023-01-19T08:30:21;10.60;;;6.10;;
49610;SDS011;35515;48.766;9.176;2023-01-19T08:32:50;9.43;;;6.90;;
49610;SDS011;35515;48.766;9.176;2023-01-19T08:35:17;9.48;;;6.45;;
49610;SDS011;35515;48.766;9.176;2023-01-19T08:37:43;10.05;;;6.57;;
49610;SDS011;35515;48.766;9.176;2023-01-19T08:40:10;11.50;;;6.97;;
49610;SDS011;35515;48.766;9.176;2023-01-19T08:42:37;9.27;;;6.15;;
49610;SDS011;35515;48.766;9.176;2023-01-19T08:45:04;9.68;;;6.93;;
49610;SDS011;35515;48.766;9.176;2023-01-19T08:47:34;12.15;;;6.82;;
49610;SDS011;35515;48.766;9.176;2023-01-19T08:50:01;14.30;;;7.80;;
49610;SDS011;35515;48.766;9.176;2023-01-19T08:52:27;12.75;;;7.78;;
49610;SDS011;35515;48.766;9.176;2023-01-19T08:54:54;15.57;;;7.57;;
49610;SDS011;35515;48.766;9.176;2023-01-19T08:57:21;11.20;;;7.63;;
49610;SDS011;35515;48.766;9.176;2023-01-19T08:59:47;12.65;;;7.07;;
49610;SDS011;35515;48.766;9.176;2023-01-19T09:02:14;11.25;;;6.32;;
49610;SDS011;35515;48.766;9.176;2023-01-19T09:04:41;10.68;;;6.50;;
49610;SDS011;35515;48.766;9.176;2023-01-19T09:07:08;8.98;;;6.95;;
49610;SDS011;35515;48.766;9.176;2023-01-19T09:09:34;9.43;;;6.22;;
49610;SDS011;35515;48.766;9.176;2023-01-19T09:12:03;13.38;;;7.80;;
49610;SDS011;35515;48.766;9.176;2023-01-19T09:14:30;8.93;;;6.55;;
49610;SDS011;35515;48.766;9.176;2023-01-19T09:16:56;8.10;;;6.57;;
49610;SDS011;35515;48.766;9.176;2023-01-19T09:19:23;13.07;;;7.05;;
49610;SDS011;35515;48.766;9.176;2023-01-19T09:21:53;9.80;;;6.43;;
49610;SDS011;35515;48.766;9.176;2023-01-19T09:24:19;11.95;;;7.05;;
49610;SDS011;35515;48.766;9.176;2023-01-19T09:26:46;9.75;;;6.35;;
49610;SDS011;35515;48.766;9.176;2023-01-19T09:29:12;8.57;;;6.95;;
49610;SDS011;35515;48.766;9.176;2023-01-19T09:31:39;9.35;;;6.20;;
49610;SDS011;35515;48.766;9.176;2023-01-19T09:34:07;11.57;;;7.32;;
49610;SDS011;35515;48.766;9.176;2023-01-19T09:36:34;7.82;;;5.95;;
49610;SDS011;35515;48.766;9.176;2023-01-19T09:39:04;6.82;;;5.63;;
49610;SDS011;35515;48.766;9.176;2023-01-19T09:41:31;9.25;;;5.80;;
49610;SDS011;35515;48.766;9.176;2023-01-19T09:44:00;8.15;;;6.07;;
49610;SDS011;35515;48.766;9.176;2023-01-19T09:46:28;8.48;;;5.38;;
49610;SDS011;35515;48.766;9.176;2023-01-19T09:49:00;9.13;;;5.78;;
49610;SDS011;35515;48.766;9.176;2023-01-19T09:51:31;7.53;;;5.70;;
49610;SDS011;35515;48.766;9.176;2023-01-19T09:54:02;8.70;;;5.65;;
49610;SDS011;35515;48.766;9.176;2023-01-19T09:56:36;9.07;;;6.30;;
49610;SDS011;35515;48.766;9.176;2023-01-19T09:59:09;12.25;;;6.53;;
49610;SDS011;35515;48.766;9.176;2023-01-19T10:01:45;8.75;;;5.65;;
49610;SDS011;35515;48.766;9.176;2023-01-19T10:04:28;8.30;;;6.03;;
49610;SDS011;35515;48.766;9.176;2023-01-19T10:07:00;11.82;;;7.10;;
49610;SDS011;35515;48.766;9.176;2023-01-19T10:09:36;9.60;;;6.40;;
49610;SDS011;35515;48.766;9.176;2023-01-19T10:12:13;11.48;;;7.53;;
49610;SDS011;35515;48.766;9.176;2023-01-19T10:14:49;8.77;;;7.00;;
49610;SDS011;35515;48.766;9.176;2023-01-19T10:17:28;8.60;;;5.63;;
49610;SDS011;35515;48.766;9.176;2023-01-19T10:20:04;10.07;;;6.00;;
49610;SDS011;35515;48.766;9.176;2023-01-19T10:22:42;10.43;;;5.93;;
49610;SDS011;35515;48.766;9.176;2023-01-19T10:25:14;11.30;;;6.00;;
49610;SDS011;35515;48.766;9.176;2023-01-19T10:27:45;11.73;;;6.28;;
49610;SDS011;35515;48.766;9.176;2023-01-19T10:30:14;10.77;;;6.78;;
49610;SDS011;35515;48.766;9.176;2023-01-19T10:32:46;9.18;;;5.93;;
49610;SDS011;35515;48.766;9.176;2023-01-19T10:35:14;9.73;;;6.60;;
49610;SDS011;35515;48.766;9.176;2023-01-19T10:37:46;11.20;;;7.05;;
49610;SDS011;35515;48.766;9.176;2023-01-19T10:40:16;10.93;;;7.15;;
49610;SDS011;35515;48.766;9.176;2023-01-19T10:42:51;10.55;;;6.90;;
49610;SDS011;35515;48.766;9.176;2023-01-19T10:45:19;10.68;;;7.07;;
49610;SDS011;35515;48.766;9.176;2023-01-19T10:47:47;12.43;;;6.97;;
49610;SDS011;35515;48.766;9.176;2023-01-19T10:50:21;9.68;;;6.50;;
49610;SDS011;35515;48.766;9.176;2023-01-19T10:52:49;8.45;;;5.90;;
49610;SDS011;35515;48.766;9.176;2023-01-19T10:55:24;10.82;;;6.70;;
49610;SDS011;35515;48.766;9.176;2023-01-19T10:57:53;12.02;;;6.40;;
49610;SDS011;35515;48.766;9.176;2023-01-19T11:00:34;9.25;;;6.30;;
49610;SDS011;35515;48.766;9.176;2023-01-19T11:05:29;10.93;;;6.38;;
49610;SDS011;35515;48.766;9.176;2023-01-19T11:07:57;8.15;;;5.95;;
49610;SDS011;35515;48.766;9.176;2023-01-19T11:10:26;8.38;;;5.90;;
49610;SDS011;35515;48.766;9.176;2023-01-19T11:12:54;11.82;;;6.97;;
49610;SDS011;35515;48.766;9.176;2023-01-19T11:15:27;9.55;;;6.03;;
49610;SDS011;35515;48.766;9.176;2023-01-19T11:17:56;11.43;;;6.05;;
49610;SDS011;35515;48.766;9.176;2023-01-19T11:20:25;10.27;;;5.97;;
49610;SDS011;35515;48.766;9.176;2023-01-19T11:23:04;10.05;;;5.72;;
49610;SDS011;35515;48.766;9.176;2023-01-19T11:25:34;10.73;;;5.88;;
49610;SDS011;35515;48.766;9.176;2023-01-19T11:28:01;8.40;;;5.90;;
49610;SDS011;35515;48.766;9.176;2023-01-19T11:30:28;10.45;;;6.47;;
49610;SDS011;35515;48.766;9.176;2023-01-19T11:32:55;11.45;;;7.10;;
49610;SDS011;35515;48.766;9.176;2023-01-19T11:35:32;10.60;;;6.50;;
49610;SDS011;35515;48.766;9.176;2023-01-19T11:38:05;8.60;;;5.78;;
49610;SDS011;35515;48.766;9.176;2023-01-19T11:40:34;9.18;;;6.07;;
49610;SDS011;35515;48.766;9.176;2023-01-19T11:43:01;10.15;;;6.57;;
49610;SDS011;35515;48.766;9.176;2023-01-19T11:45:27;8.25;;;5.72;;
49610;SDS011;35515;48.766;9.176;2023-01-19T11:47:54;7.70;;;5.68;;
49610;SDS011;35515;48.766;9.176;2023-01-19T11:50:21;8.95;;;5.55;;
49610;SDS011;35515;48.766;9.176;2023-01-19T11:52:50;9.20;;;6.30;;
49610;SDS011;35515;48.766;9.176;2023-01-19T11:55:21;11.10;;;5.57;;
49610;SDS011;35515;48.766;9.176;2023-01-19T11:57:57;7.70;;;5.07;;
49610;SDS011;35515;48.766;9.176;2023-01-19T12:00:25;12.73;;;6.55;;
49610;SDS011;35515;48.766;9.176;2023-01-19T12:02:54;8.65;;;6.10;;
49610;SDS011;35515;48.766;9.176;2023-01-19T12:05:28;9.63;;;5.70;;
49610;SDS011;35515;48.766;9.176;2023-01-19T12:07:59;8.65;;;5.72;;
49610;SDS011;35515;48.766;9.176;2023-01-19T12:10:31;10.27;;;6.53;;
49610;SDS011;35515;48.766;9.176;2023-01-19T12:13:02;9.50;;;5.93;;
49610;SDS011;35515;48.766;9.176;2023-01-19T12:15:30;9.15;;;6.97;;
49610;SDS011;35515;48.766;9.176;2023-01-19T12:18:00;7.88;;;5.45;;
49610;SDS011;35515;48.766;9.176;2023-01-19T12:20:30;10.55;;;6.18;;
49610;SDS011;35515;48.766;9.176;2023-01-19T12:23:04;11.00;;;5.55;;
49610;SDS011;35515;48.766;9.176;2023-01-19T12:25:42;11.55;;;6.30;;
49610;SDS011;35515;48.766;9.176;2023-01-19T12:28:17;9.93;;;6.13;;
49610;SDS011;35515;48.766;9.176;2023-01-19T12:30:48;10.55;;;6.03;;
49610;SDS011;35515;48.766;9.176;2023-01-19T12:33:20;9.40;;;6.00;;
49610;SDS011;35515;48.766;9.176;2023-01-19T12:35:54;7.70;;;5.95;;
49610;SDS011;35515;48.766;9.176;2023-01-19T12:38:33;11.68;;;6.00;;
49610;SDS011;35515;48.766;9.176;2023-01-19T12:41:14;10.02;;;6.00;;
49610;SDS011;35515;48.766;9.176;2023-01-19T12:43:43;10.20;;;5.72;;
49610;SDS011;35515;48.766;9.176;2023-01-19T12:46:19;9.50;;;5.75;;
49610;SDS011;35515;48.766;9.176;2023-01-19T12:48:53;10.13;;;5.38;;
49610;SDS011;35515;48.766;9.176;2023-01-19T12:51:23;11.27;;;5.43;;
49610;SDS011;35515;48.766;9.176;2023-01-19T12:53:51;7.82;;;5.60;;
49610;SDS011;35515;48.766;9.176;2023-01-19T12:56:19;8.43;;;5.53;;
49610;SDS011;35515;48.766;9.176;2023-01-19T12:58:56;9.27;;;5.53;;
49610;SDS011;35515;48.766;9.176;2023-01-19T13:01:23;7.28;;;5.50;;
49610;SDS011;35515;48.766;9.176;2023-01-19T13:03:58;8.43;;;5.35;;
49610;SDS011;35515;48.766;9.176;2023-01-19T13:09:30;10.70;;;6.55;;
49610;SDS011;35515;48.766;9.176;2023-01-19T13:14:48;7.38;;;5.80;;
49610;SDS011;35515;48.766;9.176;2023-01-19T13:17:17;8.93;;;5.47;;
49610;SDS011;35515;48.766;9.176;2023-01-19T13:19:59;10.60;;;5.63;;
49610;SDS011;35515;48.766;9.176;2023-01-19T13:25:49;7.50;;;4.95;;
49610;SDS011;35515;48.766;9.176;2023-01-19T13:28:18;9.63;;;5.68;;
49610;SDS011;35515;48.766;9.176;2023-01-19T13:30:51;10.57;;;5.30;;
49610;SDS011;35515;48.766;9.176;2023-01-19T13:33:21;9.02;;;5.50;;
49610;SDS011;35515;48.766;9.176;2023-01-19T13:35:50;7.63;;;5.07;;
49610;SDS011;35515;48.766;9.176;2023-01-19T13:38:20;8.15;;;5.13;;
49610;SDS011;35515;48.766;9.176;2023-01-19T13:40:48;10.20;;;6.28;;
49610;SDS011;35515;48.766;9.176;2023-01-19T13:43:16;10.35;;;6.25;;
49610;SDS011;35515;48.766;9.176;2023-01-19T13:45:46;9.67;;;6.50;;
49610;SDS011;35515;48.766;9.176;2023-01-19T13:48:17;12.88;;;7.07;;
49610;SDS011;35515;48.766;9.176;2023-01-19T13:50:57;9.85;;;6.90;;
49610;SDS011;35515;48.766;9.176;2023-01-19T13:53:25;11.05;;;7.15;;
49610;SDS011;35515;48.766;9.176;2023-01-19T13:58:56;9.07;;;6.53;;
49610;SDS011;35515;48.766;9.176;2023-01-19T14:01:23;8.98;;;6.50;;
49610;SDS011;35515;48.766;9.176;2023-01-19T14:03:53;10.38;;;7.20;;
49610;SDS011;35515;48.766;9.176;2023-01-19T14:06:20;11.65;;;7.85;;
49610;SDS011;35515;48.766;9.176;2023-01-19T14:11:33;9.50;;;7.57;;
49610;SDS011;35515;48.766;9.176;2023-01-19T14:13:59;10.32;;;7.25;;
49610;SDS011;35515;48.766;9.176;2023-01-19T14:16:26;12.60;;;8.52;;
49610;SDS011;35515;48.766;9.176;2023-01-19T14:18:58;16.05;;;7.90;;
49610;SDS011;35515;48.766;9.176;2023-01-19T14:21:35;11.05;;;7.53;;
49610;SDS011;35515;48.766;9.176;2023-01-19T14:24:07;11.85;;;8.27;;
49610;SDS011;35515;48.766;9.176;2023-01-19T14:26:38;10.77;;;7.75;;
49610;SDS011;35515;48.766;9.176;2023-01-19T14:29:14;10.40;;;8.00;;
49610;SDS011;35515;48.766;9.176;2023-01-19T14:31:47;12.15;;;8.43;;
49610;SDS011;35515;48.766;9.176;2023-01-19T14:34:30;16.30;;;9.02;;
49610;SDS011;35515;48.766;9.176;2023-01-19T14:36:57;14.55;;;9.07;;
49610;SDS011;35515;48.766;9.176;2023-01-19T14:39:25;10.02;;;7.75;;
49610;SDS011;35515;48.766;9.176;2023-01-19T14:41:53;11.82;;;8.07;;
49610;SDS011;35515;48.766;9.176;2023-01-19T14:44:25;10.13;;;7.68;;
49610;SDS011;35515;48.766;9.176;2023-01-19T14:46:54;13.77;;;9.45;;
49610;SDS011;35515;48.766;9.176;2023-01-19T14:49:25;15.00;;;9.60;;
49610;SDS011;35515;48.766;9.176;2023-01-19T14:51:57;15.20;;;9.18;;
49610;SDS011;35515;48.766;9.176;2023-01-19T14:54:26;12.13;;;7.75;;
49610;SDS011;35515;48.766;9.176;2023-01-19T14:56:57;11.65;;;8.18;;
49610;SDS011;35515;48.766;9.176;2023-01-19T14:59:23;12.98;;;8.25;;
49610;SDS011;35515;48.766;9.176;2023-01-19T15:01:50;12.20;;;7.68;;
49610;SDS011;35515;48.766;9.176;2023-01-19T15:04:16;14.13;;;7.88;;
49610;SDS011;35515;48.766;9.176;2023-01-19T15:06:43;11.13;;;7.75;;
49610;SDS011;35515;48.766;9.176;2023-01-19T15:09:12;12.07;;;7.28;;
49610;SDS011;35515;48.766;9.176;2023-01-19T15:11:39;9.38;;;7.13;;
49610;SDS011;35515;48.766;9.176;2023-01-19T15:14:07;11.50;;;7.65;;